sensor_id;sensor_type;location;lat;lon;timestamp;P1;durP1;ratioP1;P2;durP2;ratioP2
12263;SDS011;6194;49.010;8.414;2023-04-03T00:00:11;2.27;;;1.90;;
12263;SDS011;6194;49.010;8.414;2023-04-03T00:02:38;1.90;;;1.80;;
12263;SDS011;6194;49.010;8.414;2023-04-03T00:05:05;1.70;;;1.60;;
12263;SDS011;6194;49.010;8.414;2023-04-03T00:07:31;1.80;;;1.70;;
12263;SDS011;6194;49.010;8.414;2023-04-03T00:09:57;2.40;;;1.90;;
12263;SDS011;6194;49.010;8.414;2023-04-03T00:12:22;2.20;;;2.00;;
12263;SDS011;6194;49.010;8.414;2023-04-03T00:14:48;2.10;;;1.90;;
12263;SDS011;6194;49.010;8.414;2023-04-03T00:17:13;1.97;;;1.87;;
12263;SDS011;6194;49.010;8.414;2023-04-03T00:19:39;2.67;;;1.80;;
12263;SDS011;6194;49.010;8.414;2023-04-03T00:22:05;2.43;;;1.70;;
12263;SDS011;6194;49.010;8.414;2023-04-03T00:24:30;2.60;;;1.90;;
12263;SDS011;6194;49.010;8.414;2023-04-03T00:26:56;1.67;;;1.57;;
12263;SDS011;6194;49.010;8.414;2023-04-03T00:29:21;1.90;;;1.80;;
12263;SDS011;6194;49.010;8.414;2023-04-03T00:31:47;1.93;;;1.80;;
12263;SDS011;6194;49.010;8.414;2023-04-03T00:34:13;2.03;;;1.87;;
12263;SDS011;6194;49.010;8.414;2023-04-03T00:36:38;1.90;;;1.80;;
12263;SDS011;6194;49.010;8.414;2023-04-03T00:39:04;2.03;;;1.90;;
12263;SDS011;6194;49.010;8.414;2023-04-03T00:41:30;2.33;;;1.70;;
12263;SDS011;6194;49.010;8.414;2023-04-03T00:43:56;2.37;;;1.60;;
12263;SDS011;6194;49.010;8.414;2023-04-03T00:46:22;2.00;;;1.80;;
12263;SDS011;6194;49.010;8.414;2023-04-03T00:48:48;1.90;;;1.80;;
12263;SDS011;6194;49.010;8.414;2023-04-03T00:51:16;3.27;;;2.00;;
12263;SDS011;6194;49.010;8.414;2023-04-03T00:53:50;1.50;;;1.40;;
12263;SDS011;6194;49.010;8.414;2023-04-03T00:56:20;2.50;;;1.70;;
12263;SDS011;6194;49.010;8.414;2023-04-03T00:58:56;2.30;;;1.77;;
12263;SDS011;6194;49.010;8.414;2023-04-03T01:01:27;2.17;;;1.73;;
12263;SDS011;6194;49.010;8.414;2023-04-03T01:03:54;1.70;;;1.60;;
12263;SDS011;6194;49.010;8.414;2023-04-03T01:06:21;2.23;;;1.80;;
12263;SDS011;6194;49.010;8.414;2023-04-03T01:08:51;2.23;;;2.00;;
12263;SDS011;6194;49.010;8.414;2023-04-03T01:11:17;2.33;;;1.70;;
12263;SDS011;6194;49.010;8.414;2023-04-03T01:13:43;2.93;;;1.73;;
12263;SDS011;6194;49.010;8.414;2023-04-03T01:16:09;2.60;;;1.50;;
12263;SDS011;6194;49.010;8.414;2023-04-03T01:18:36;2.17;;;1.57;;
12263;SDS011;6194;49.010;8.414;2023-04-03T01:24:21;2.90;;;1.60;;
12263;SDS011;6194;49.010;8.414;2023-04-03T01:27:04;3.80;;;1.90;;
12263;SDS011;6194;49.010;8.414;2023-04-03T01:29:31;2.10;;;1.87;;
12263;SDS011;6194;49.010;8.414;2023-04-03T01:31:57;3.03;;;1.63;;
12263;SDS011;6194;49.010;8.414;2023-04-03T01:34:25;1.70;;;1.60;;
12263;SDS011;6194;49.010;8.414;2023-04-03T01:36:52;2.00;;;1.77;;
12263;SDS011;6194;49.010;8.414;2023-04-03T01:39:18;1.73;;;1.50;;
12263;SDS011;6194;49.010;8.414;2023-04-03T01:41:44;1.73;;;1.57;;
12263;SDS011;6194;49.010;8.414;2023-04-03T01:44:10;2.47;;;1.73;;
12263;SDS011;6194;49.010;8.414;2023-04-03T01:46:36;1.83;;;1.70;;
12263;SDS011;6194;49.010;8.414;2023-04-03T01:49:03;3.03;;;1.70;;
12263;SDS011;6194;49.010;8.414;2023-04-03T01:51:29;1.73;;;1.63;;
12263;SDS011;6194;49.010;8.414;2023-04-03T01:53:55;1.70;;;1.60;;
12263;SDS011;6194;49.010;8.414;2023-04-03T01:56:20;2.43;;;2.10;;
12263;SDS011;6194;49.010;8.414;2023-04-03T01:58:46;3.13;;;1.70;;
12263;SDS011;6194;49.010;8.414;2023-04-03T02:01:12;1.70;;;1.60;;
12263;SDS011;6194;49.010;8.414;2023-04-03T02:03:37;2.00;;;1.90;;
12263;SDS011;6194;49.010;8.414;2023-04-03T02:06:03;2.07;;;1.70;;
12263;SDS011;6194;49.010;8.414;2023-04-03T02:08:29;4.80;;;2.07;;
12263;SDS011;6194;49.010;8.414;2023-04-03T02:10:54;2.13;;;1.93;;
12263;SDS011;6194;49.010;8.414;2023-04-03T02:13:20;2.20;;;1.97;;
12263;SDS011;6194;49.010;8.414;2023-04-03T02:15:45;3.40;;;2.10;;
12263;SDS011;6194;49.010;8.414;2023-04-03T02:18:12;2.00;;;1.90;;
12263;SDS011;6194;49.010;8.414;2023-04-03T02:20:38;2.33;;;2.17;;
12263;SDS011;6194;49.010;8.414;2023-04-03T02:23:03;1.90;;;1.80;;
12263;SDS011;6194;49.010;8.414;2023-04-03T02:25:30;2.03;;;1.80;;
12263;SDS011;6194;49.010;8.414;2023-04-03T02:27:56;2.87;;;2.00;;
12263;SDS011;6194;49.010;8.414;2023-04-03T02:30:22;2.20;;;2.00;;
12263;SDS011;6194;49.010;8.414;2023-04-03T02:32:47;2.70;;;2.07;;
12263;SDS011;6194;49.010;8.414;2023-04-03T02:35:13;2.40;;;2.13;;
12263;SDS011;6194;49.010;8.414;2023-04-03T02:37:39;2.00;;;1.90;;
12263;SDS011;6194;49.010;8.414;2023-04-03T02:40:04;2.00;;;1.90;;
12263;SDS011;6194;49.010;8.414;2023-04-03T02:42:31;3.60;;;2.23;;
12263;SDS011;6194;49.010;8.414;2023-04-03T02:44:57;2.23;;;2.00;;
12263;SDS011;6194;49.010;8.414;2023-04-03T02:47:22;2.57;;;2.00;;
12263;SDS011;6194;49.010;8.414;2023-04-03T02:49:48;2.63;;;2.30;;
12263;SDS011;6194;49.010;8.414;2023-04-03T02:52:13;2.77;;;2.20;;
12263;SDS011;6194;49.010;8.414;2023-04-03T02:54:39;2.90;;;1.93;;
12263;SDS011;6194;49.010;8.414;2023-04-03T02:57:05;2.60;;;2.23;;
12263;SDS011;6194;49.010;8.414;2023-04-03T02:59:33;2.47;;;2.27;;
12263;SDS011;6194;49.010;8.414;2023-04-03T03:02:00;5.63;;;2.27;;
12263;SDS011;6194;49.010;8.414;2023-04-03T03:04:26;1.70;;;1.60;;
12263;SDS011;6194;49.010;8.414;2023-04-03T03:06:51;2.83;;;2.30;;
12263;SDS011;6194;49.010;8.414;2023-04-03T03:09:17;2.77;;;2.40;;
12263;SDS011;6194;49.010;8.414;2023-04-03T03:11:43;3.30;;;2.23;;
12263;SDS011;6194;49.010;8.414;2023-04-03T03:14:09;3.10;;;2.00;;
12263;SDS011;6194;49.010;8.414;2023-04-03T03:16:34;2.00;;;1.90;;
12263;SDS011;6194;49.010;8.414;2023-04-03T03:19:00;2.27;;;2.17;;
12263;SDS011;6194;49.010;8.414;2023-04-03T03:21:25;2.23;;;2.03;;
12263;SDS011;6194;49.010;8.414;2023-04-03T03:23:51;2.23;;;1.90;;
12263;SDS011;6194;49.010;8.414;2023-04-03T03:26:17;1.83;;;1.73;;
12263;SDS011;6194;49.010;8.414;2023-04-03T03:28:42;2.20;;;2.00;;
12263;SDS011;6194;49.010;8.414;2023-04-03T03:31:08;2.53;;;2.10;;
12263;SDS011;6194;49.010;8.414;2023-04-03T03:33:35;2.93;;;2.20;;
12263;SDS011;6194;49.010;8.414;2023-04-03T03:36:00;4.77;;;2.10;;
12263;SDS011;6194;49.010;8.414;2023-04-03T03:38:26;1.90;;;1.80;;
12263;SDS011;6194;49.010;8.414;2023-04-03T03:40:52;3.00;;;2.20;;
12263;SDS011;6194;49.010;8.414;2023-04-03T03:43:18;2.77;;;2.40;;
12263;SDS011;6194;49.010;8.414;2023-04-03T03:45:45;2.37;;;2.20;;
12263;SDS011;6194;49.010;8.414;2023-04-03T03:48:11;2.10;;;2.00;;
12263;SDS011;6194;49.010;8.414;2023-04-03T03:50:37;1.80;;;1.70;;
12263;SDS011;6194;49.010;8.414;2023-04-03T03:53:02;3.07;;;2.10;;
12263;SDS011;6194;49.010;8.414;2023-04-03T03:55:28;2.30;;;2.10;;
12263;SDS011;6194;49.010;8.414;2023-04-03T03:57:53;3.27;;;1.90;;
12263;SDS011;6194;49.010;8.414;2023-04-03T04:00:19;2.33;;;2.10;;
12263;SDS011;6194;49.010;8.414;2023-04-03T04:02:45;2.20;;;2.00;;
12263;SDS011;6194;49.010;8.414;2023-04-03T04:05:10;4.20;;;2.00;;
12263;SDS011;6194;49.010;8.414;2023-04-03T04:07:36;2.00;;;1.90;;
12263;SDS011;6194;49.010;8.414;2023-04-03T04:10:02;3.17;;;2.27;;
12263;SDS011;6194;49.010;8.414;2023-04-03T04:12:28;2.40;;;2.20;;
12263;SDS011;6194;49.010;8.414;2023-04-03T04:14:53;3.30;;;2.23;;
12263;SDS011;6194;49.010;8.414;2023-04-03T04:17:19;2.40;;;2.20;;
12263;SDS011;6194;49.010;8.414;2023-04-03T04:19:45;2.00;;;1.90;;
12263;SDS011;6194;49.010;8.414;2023-04-03T04:22:10;3.73;;;2.10;;
12263;SDS011;6194;49.010;8.414;2023-04-03T04:24:36;2.90;;;2.00;;
12263;SDS011;6194;49.010;8.414;2023-04-03T04:27:02;3.17;;;2.17;;
12263;SDS011;6194;49.010;8.414;2023-04-03T04:29:27;2.77;;;2.00;;
12263;SDS011;6194;49.010;8.414;2023-04-03T04:31:53;2.57;;;1.90;;
12263;SDS011;6194;49.010;8.414;2023-04-03T04:34:18;2.73;;;2.13;;
12263;SDS011;6194;49.010;8.414;2023-04-03T04:36:44;3.60;;;2.50;;
12263;SDS011;6194;49.010;8.414;2023-04-03T04:39:09;2.20;;;1.90;;
12263;SDS011;6194;49.010;8.414;2023-04-03T04:41:35;3.20;;;2.00;;
12263;SDS011;6194;49.010;8.414;2023-04-03T04:44:01;2.10;;;1.87;;
12263;SDS011;6194;49.010;8.414;2023-04-03T04:46:26;2.37;;;2.20;;
12263;SDS011;6194;49.010;8.414;2023-04-03T04:48:52;3.13;;;2.03;;
12263;SDS011;6194;49.010;8.414;2023-04-03T04:51:17;2.00;;;1.90;;
12263;SDS011;6194;49.010;8.414;2023-04-03T04:53:43;3.33;;;2.10;;
12263;SDS011;6194;49.010;8.414;2023-04-03T04:56:10;2.10;;;2.00;;
12263;SDS011;6194;49.010;8.414;2023-04-03T04:58:35;2.40;;;2.20;;
12263;SDS011;6194;49.010;8.414;2023-04-03T05:01:02;2.70;;;1.90;;
12263;SDS011;6194;49.010;8.414;2023-04-03T05:03:29;2.13;;;2.03;;
12263;SDS011;6194;49.010;8.414;2023-04-03T05:05:55;1.80;;;1.70;;
12263;SDS011;6194;49.010;8.414;2023-04-03T05:08:21;2.10;;;2.00;;
12263;SDS011;6194;49.010;8.414;2023-04-03T05:10:47;1.93;;;1.83;;
12263;SDS011;6194;49.010;8.414;2023-04-03T05:13:13;2.00;;;1.90;;
12263;SDS011;6194;49.010;8.414;2023-04-03T05:15:38;3.03;;;2.50;;
12263;SDS011;6194;49.010;8.414;2023-04-03T05:18:04;2.07;;;1.97;;
12263;SDS011;6194;49.010;8.414;2023-04-03T05:20:30;2.33;;;2.13;;
12263;SDS011;6194;49.010;8.414;2023-04-03T05:22:56;4.27;;;2.17;;
12263;SDS011;6194;49.010;8.414;2023-04-03T05:25:22;1.90;;;1.80;;
12263;SDS011;6194;49.010;8.414;2023-04-03T05:27:48;2.13;;;2.03;;
12263;SDS011;6194;49.010;8.414;2023-04-03T05:30:14;3.27;;;2.63;;
12263;SDS011;6194;49.010;8.414;2023-04-03T05:32:39;2.20;;;2.10;;
12263;SDS011;6194;49.010;8.414;2023-04-03T05:35:06;2.20;;;2.03;;
12263;SDS011;6194;49.010;8.414;2023-04-03T05:37:32;3.60;;;2.03;;
12263;SDS011;6194;49.010;8.414;2023-04-03T05:39:58;2.47;;;1.97;;
12263;SDS011;6194;49.010;8.414;2023-04-03T05:42:24;2.53;;;2.00;;
12263;SDS011;6194;49.010;8.414;2023-04-03T05:44:49;2.10;;;2.00;;
12263;SDS011;6194;49.010;8.414;2023-04-03T05:47:15;2.87;;;2.30;;
12263;SDS011;6194;49.010;8.414;2023-04-03T05:49:42;3.00;;;1.73;;
12263;SDS011;6194;49.010;8.414;2023-04-03T05:52:30;2.77;;;2.30;;
12263;SDS011;6194;49.010;8.414;2023-04-03T05:54:56;2.37;;;2.20;;
12263;SDS011;6194;49.010;8.414;2023-04-03T05:57:22;2.63;;;2.10;;
12263;SDS011;6194;49.010;8.414;2023-04-03T05:59:48;2.40;;;2.03;;
12263;SDS011;6194;49.010;8.414;2023-04-03T06:02:15;2.07;;;1.87;;
12263;SDS011;6194;49.010;8.414;2023-04-03T06:04:42;4.50;;;2.50;;
12263;SDS011;6194;49.010;8.414;2023-04-03T06:07:12;3.23;;;2.37;;
12263;SDS011;6194;49.010;8.414;2023-04-03T06:09:44;2.60;;;2.40;;
12263;SDS011;6194;49.010;8.414;2023-04-03T06:12:10;2.23;;;2.03;;
12263;SDS011;6194;49.010;8.414;2023-04-03T06:14:36;7.07;;;2.30;;
12263;SDS011;6194;49.010;8.414;2023-04-03T06:17:02;3.70;;;2.23;;
12263;SDS011;6194;49.010;8.414;2023-04-03T06:19:28;2.57;;;2.30;;
12263;SDS011;6194;49.010;8.414;2023-04-03T06:21:53;2.37;;;2.17;;
12263;SDS011;6194;49.010;8.414;2023-04-03T06:24:19;2.30;;;2.10;;
12263;SDS011;6194;49.010;8.414;2023-04-03T06:26:47;2.50;;;2.30;;
12263;SDS011;6194;49.010;8.414;2023-04-03T06:29:13;2.50;;;2.30;;
12263;SDS011;6194;49.010;8.414;2023-04-03T06:31:39;5.50;;;2.30;;
12263;SDS011;6194;49.010;8.414;2023-04-03T06:34:05;2.40;;;2.20;;
12263;SDS011;6194;49.010;8.414;2023-04-03T06:36:32;2.60;;;2.33;;
12263;SDS011;6194;49.010;8.414;2023-04-03T06:38:58;3.63;;;2.00;;
12263;SDS011;6194;49.010;8.414;2023-04-03T06:41:23;3.97;;;2.53;;
12263;SDS011;6194;49.010;8.414;2023-04-03T06:43:51;2.47;;;2.27;;
12263;SDS011;6194;49.010;8.414;2023-04-03T06:46:17;2.23;;;2.03;;
12263;SDS011;6194;49.010;8.414;2023-04-03T06:48:45;2.80;;;2.40;;
12263;SDS011;6194;49.010;8.414;2023-04-03T06:51:21;3.63;;;2.50;;
12263;SDS011;6194;49.010;8.414;2023-04-03T06:53:50;3.37;;;2.17;;
12263;SDS011;6194;49.010;8.414;2023-04-03T06:56:17;3.83;;;2.17;;
12263;SDS011;6194;49.010;8.414;2023-04-03T06:58:43;4.50;;;2.40;;
12263;SDS011;6194;49.010;8.414;2023-04-03T07:01:09;3.77;;;2.20;;
12263;SDS011;6194;49.010;8.414;2023-04-03T07:03:37;2.90;;;1.90;;
12263;SDS011;6194;49.010;8.414;2023-04-03T07:06:03;4.50;;;2.63;;
12263;SDS011;6194;49.010;8.414;2023-04-03T07:08:30;2.10;;;2.00;;
12263;SDS011;6194;49.010;8.414;2023-04-03T07:10:55;3.90;;;2.20;;
12263;SDS011;6194;49.010;8.414;2023-04-03T07:13:21;2.47;;;2.20;;
12263;SDS011;6194;49.010;8.414;2023-04-03T07:15:46;2.83;;;2.37;;
12263;SDS011;6194;49.010;8.414;2023-04-03T07:18:13;3.93;;;2.70;;
12263;SDS011;6194;49.010;8.414;2023-04-03T07:20:39;2.90;;;2.20;;
12263;SDS011;6194;49.010;8.414;2023-04-03T07:23:05;3.27;;;2.50;;
12263;SDS011;6194;49.010;8.414;2023-04-03T07:25:31;2.57;;;2.30;;
12263;SDS011;6194;49.010;8.414;2023-04-03T07:28:03;2.50;;;2.30;;
12263;SDS011;6194;49.010;8.414;2023-04-03T07:30:29;2.50;;;2.30;;
12263;SDS011;6194;49.010;8.414;2023-04-03T07:32:54;2.30;;;2.07;;
12263;SDS011;6194;49.010;8.414;2023-04-03T07:35:20;4.13;;;2.20;;
12263;SDS011;6194;49.010;8.414;2023-04-03T07:37:46;2.63;;;2.27;;
12263;SDS011;6194;49.010;8.414;2023-04-03T07:40:11;3.50;;;2.50;;
12263;SDS011;6194;49.010;8.414;2023-04-03T07:42:37;5.00;;;2.70;;
12263;SDS011;6194;49.010;8.414;2023-04-03T07:45:03;3.43;;;2.60;;
12263;SDS011;6194;49.010;8.414;2023-04-03T07:47:29;2.80;;;2.47;;
12263;SDS011;6194;49.010;8.414;2023-04-03T07:49:56;4.13;;;2.60;;
12263;SDS011;6194;49.010;8.414;2023-04-03T07:52:22;5.37;;;2.40;;
12263;SDS011;6194;49.010;8.414;2023-04-03T07:54:48;2.93;;;2.37;;
12263;SDS011;6194;49.010;8.414;2023-04-03T07:57:13;2.00;;;1.90;;
12263;SDS011;6194;49.010;8.414;2023-04-03T07:59:39;3.00;;;2.50;;
12263;SDS011;6194;49.010;8.414;2023-04-03T08:02:08;2.60;;;2.40;;
12263;SDS011;6194;49.010;8.414;2023-04-03T08:04:36;4.77;;;2.10;;
12263;SDS011;6194;49.010;8.414;2023-04-03T08:07:02;3.20;;;2.80;;
12263;SDS011;6194;49.010;8.414;2023-04-03T08:09:28;3.33;;;2.60;;
12263;SDS011;6194;49.010;8.414;2023-04-03T08:11:53;3.97;;;2.77;;
12263;SDS011;6194;49.010;8.414;2023-04-03T08:14:19;3.60;;;2.30;;
12263;SDS011;6194;49.010;8.414;2023-04-03T08:16:46;3.23;;;2.57;;
12263;SDS011;6194;49.010;8.414;2023-04-03T08:19:13;2.63;;;2.40;;
12263;SDS011;6194;49.010;8.414;2023-04-03T08:21:41;2.67;;;2.30;;
12263;SDS011;6194;49.010;8.414;2023-04-03T08:24:07;5.33;;;2.10;;
12263;SDS011;6194;49.010;8.414;2023-04-03T08:26:33;2.53;;;1.97;;
12263;SDS011;6194;49.010;8.414;2023-04-03T08:28:59;2.47;;;2.20;;
12263;SDS011;6194;49.010;8.414;2023-04-03T08:31:24;2.73;;;2.50;;
12263;SDS011;6194;49.010;8.414;2023-04-03T08:33:50;2.30;;;2.10;;
12263;SDS011;6194;49.010;8.414;2023-04-03T08:36:18;2.30;;;2.10;;
12263;SDS011;6194;49.010;8.414;2023-04-03T08:38:44;2.90;;;2.60;;
12263;SDS011;6194;49.010;8.414;2023-04-03T08:41:15;3.47;;;2.50;;
12263;SDS011;6194;49.010;8.414;2023-04-03T08:46:21;3.40;;;2.37;;
12263;SDS011;6194;49.010;8.414;2023-04-03T08:48:51;5.10;;;2.43;;
12263;SDS011;6194;49.010;8.414;2023-04-03T08:51:19;2.70;;;2.50;;
12263;SDS011;6194;49.010;8.414;2023-04-03T08:53:56;2.73;;;2.10;;
12263;SDS011;6194;49.010;8.414;2023-04-03T08:56:29;2.20;;;2.00;;
12263;SDS011;6194;49.010;8.414;2023-04-03T08:59:06;3.03;;;2.10;;
12263;SDS011;6194;49.010;8.414;2023-04-03T09:01:40;1.87;;;1.77;;
12263;SDS011;6194;49.010;8.414;2023-04-03T09:04:10;2.53;;;1.97;;
12263;SDS011;6194;49.010;8.414;2023-04-03T09:06:38;3.23;;;2.37;;
12263;SDS011;6194;49.010;8.414;2023-04-03T09:14:27;2.30;;;2.00;;
12263;SDS011;6194;49.010;8.414;2023-04-03T09:22:33;3.37;;;2.17;;
12263;SDS011;6194;49.010;8.414;2023-04-03T09:25:21;4.87;;;2.30;;
12263;SDS011;6194;49.010;8.414;2023-04-03T09:27:50;2.63;;;2.33;;
12263;SDS011;6194;49.010;8.414;2023-04-03T09:30:17;2.40;;;2.20;;
12263;SDS011;6194;49.010;8.414;2023-04-03T09:32:47;1.97;;;1.87;;
12263;SDS011;6194;49.010;8.414;2023-04-03T09:35:22;8.17;;;2.20;;
12263;SDS011;6194;49.010;8.414;2023-04-03T09:37:53;2.90;;;2.13;;
12263;SDS011;6194;49.010;8.414;2023-04-03T09:42:54;3.90;;;1.57;;
12263;SDS011;6194;49.010;8.414;2023-04-03T09:45:25;3.13;;;1.90;;
12263;SDS011;6194;49.010;8.414;2023-04-03T09:51:23;2.30;;;1.73;;
12263;SDS011;6194;49.010;8.414;2023-04-03T09:53:27;3.53;;;1.90;;
12263;SDS011;6194;49.010;8.414;2023-04-03T09:55:56;2.10;;;1.77;;
12263;SDS011;6194;49.010;8.414;2023-04-03T09:58:27;3.40;;;2.10;;
12263;SDS011;6194;49.010;8.414;2023-04-03T10:00:57;2.53;;;1.90;;
12263;SDS011;6194;49.010;8.414;2023-04-03T10:03:29;4.57;;;1.77;;
12263;SDS011;6194;49.010;8.414;2023-04-03T10:05:56;2.37;;;1.50;;
12263;SDS011;6194;49.010;8.414;2023-04-03T10:08:24;1.90;;;1.70;;
12263;SDS011;6194;49.010;8.414;2023-04-03T10:13:35;2.60;;;1.53;;
12263;SDS011;6194;49.010;8.414;2023-04-03T10:16:14;2.53;;;1.80;;
12263;SDS011;6194;49.010;8.414;2023-04-03T10:21:50;2.57;;;1.77;;
12263;SDS011;6194;49.010;8.414;2023-04-03T10:24:35;2.10;;;1.77;;
12263;SDS011;6194;49.010;8.414;2023-04-03T10:29:59;1.87;;;1.53;;
12263;SDS011;6194;49.010;8.414;2023-04-03T10:41:02;1.87;;;1.47;;
12263;SDS011;6194;49.010;8.414;2023-04-03T10:43:39;2.30;;;1.50;;
12263;SDS011;6194;49.010;8.414;2023-04-03T10:49:00;1.50;;;1.40;;
12263;SDS011;6194;49.010;8.414;2023-04-03T10:54:11;2.27;;;1.50;;
12263;SDS011;6194;49.010;8.414;2023-04-03T10:56:44;2.63;;;1.73;;
12263;SDS011;6194;49.010;8.414;2023-04-03T10:59:23;2.90;;;1.53;;
12263;SDS011;6194;49.010;8.414;2023-04-03T11:02:14;2.00;;;1.80;;
12263;SDS011;6194;49.010;8.414;2023-04-03T11:04:48;2.03;;;1.67;;
12263;SDS011;6194;49.010;8.414;2023-04-03T11:07:19;1.60;;;1.50;;
12263;SDS011;6194;49.010;8.414;2023-04-03T11:09:55;1.60;;;1.50;;
12263;SDS011;6194;49.010;8.414;2023-04-03T11:15:13;1.50;;;1.40;;
12263;SDS011;6194;49.010;8.414;2023-04-03T11:18:02;1.13;;;1.03;;
12263;SDS011;6194;49.010;8.414;2023-04-03T11:20:33;1.97;;;1.60;;
12263;SDS011;6194;49.010;8.414;2023-04-03T11:23:06;1.77;;;1.37;;
12263;SDS011;6194;49.010;8.414;2023-04-03T11:25:41;1.20;;;1.13;;
12263;SDS011;6194;49.010;8.414;2023-04-03T11:28:14;1.60;;;1.50;;
12263;SDS011;6194;49.010;8.414;2023-04-03T11:33:49;2.50;;;1.50;;
12263;SDS011;6194;49.010;8.414;2023-04-03T11:39:07;1.10;;;1.10;;
12263;SDS011;6194;49.010;8.414;2023-04-03T11:41:53;1.60;;;1.50;;
12263;SDS011;6194;49.010;8.414;2023-04-03T11:44:33;1.80;;;1.70;;
12263;SDS011;6194;49.010;8.414;2023-04-03T11:47:07;1.63;;;1.40;;
12263;SDS011;6194;49.010;8.414;2023-04-03T12:03:29;3.77;;;1.73;;
12263;SDS011;6194;49.010;8.414;2023-04-03T12:08:46;2.60;;;1.40;;
12263;SDS011;6194;49.010;8.414;2023-04-03T12:18:53;3.97;;;1.93;;
12263;SDS011;6194;49.010;8.414;2023-04-03T12:29:24;2.80;;;1.80;;
12263;SDS011;6194;49.010;8.414;2023-04-03T12:46:23;2.20;;;1.67;;
12263;SDS011;6194;49.010;8.414;2023-04-03T12:48:52;2.90;;;2.00;;
12263;SDS011;6194;49.010;8.414;2023-04-03T12:54:16;2.30;;;1.77;;
12263;SDS011;6194;49.010;8.414;2023-04-03T12:57:13;2.60;;;1.53;;
12263;SDS011;6194;49.010;8.414;2023-04-03T12:59:41;3.47;;;1.87;;
12263;SDS011;6194;49.010;8.414;2023-04-03T13:02:15;2.63;;;1.90;;
12263;SDS011;6194;49.010;8.414;2023-04-03T13:04:49;1.40;;;1.40;;
12263;SDS011;6194;49.010;8.414;2023-04-03T13:07:35;3.00;;;1.67;;
12263;SDS011;6194;49.010;8.414;2023-04-03T13:12:35;1.70;;;1.60;;
12263;SDS011;6194;49.010;8.414;2023-04-03T13:15:22;1.70;;;1.60;;
12263;SDS011;6194;49.010;8.414;2023-04-03T13:17:53;3.50;;;1.70;;
12263;SDS011;6194;49.010;8.414;2023-04-03T13:20:29;2.87;;;2.00;;
12263;SDS011;6194;49.010;8.414;2023-04-03T13:22:59;3.07;;;1.77;;
12263;SDS011;6194;49.010;8.414;2023-04-03T13:25:35;2.00;;;1.80;;
12263;SDS011;6194;49.010;8.414;2023-04-03T13:28:04;3.10;;;2.10;;
12263;SDS011;6194;49.010;8.414;2023-04-03T13:30:32;1.83;;;1.50;;
12263;SDS011;6194;49.010;8.414;2023-04-03T13:33:02;3.20;;;1.50;;
12263;SDS011;6194;49.010;8.414;2023-04-03T13:37:57;2.63;;;1.93;;
12263;SDS011;6194;49.010;8.414;2023-04-03T13:40:24;2.20;;;1.63;;
12263;SDS011;6194;49.010;8.414;2023-04-03T13:43:00;4.97;;;2.07;;
12263;SDS011;6194;49.010;8.414;2023-04-03T13:45:32;1.70;;;1.60;;
12263;SDS011;6194;49.010;8.414;2023-04-03T13:48:09;1.60;;;1.50;;
12263;SDS011;6194;49.010;8.414;2023-04-03T13:50:58;1.60;;;1.50;;
12263;SDS011;6194;49.010;8.414;2023-04-03T13:53:27;2.47;;;1.70;;
12263;SDS011;6194;49.010;8.414;2023-04-03T13:56:05;2.00;;;1.80;;
12263;SDS011;6194;49.010;8.414;2023-04-03T13:58:34;3.90;;;1.97;;
12263;SDS011;6194;49.010;8.414;2023-04-03T14:01:06;1.60;;;1.50;;
12263;SDS011;6194;49.010;8.414;2023-04-03T14:06:12;4.53;;;1.60;;
12263;SDS011;6194;49.010;8.414;2023-04-03T14:08:40;2.10;;;1.90;;
12263;SDS011;6194;49.010;8.414;2023-04-03T14:11:08;1.53;;;1.43;;
12263;SDS011;6194;49.010;8.414;2023-04-03T14:13:37;2.40;;;1.60;;
12263;SDS011;6194;49.010;8.414;2023-04-03T14:16:03;2.00;;;1.60;;
12263;SDS011;6194;49.010;8.414;2023-04-03T14:18:28;2.90;;;1.80;;
12263;SDS011;6194;49.010;8.414;2023-04-03T14:20:54;1.87;;;1.60;;
12263;SDS011;6194;49.010;8.414;2023-04-03T14:23:20;3.10;;;1.97;;
12263;SDS011;6194;49.010;8.414;2023-04-03T14:25:45;2.13;;;1.90;;
12263;SDS011;6194;49.010;8.414;2023-04-03T14:28:18;2.70;;;2.00;;
12263;SDS011;6194;49.010;8.414;2023-04-03T14:30:46;2.97;;;1.87;;
12263;SDS011;6194;49.010;8.414;2023-04-03T14:33:14;1.90;;;1.77;;
12263;SDS011;6194;49.010;8.414;2023-04-03T14:35:41;2.27;;;1.80;;
12263;SDS011;6194;49.010;8.414;2023-04-03T14:38:28;2.47;;;1.77;;
12263;SDS011;6194;49.010;8.414;2023-04-03T14:40:55;3.93;;;1.80;;
12263;SDS011;6194;49.010;8.414;2023-04-03T14:43:21;4.37;;;2.50;;
12263;SDS011;6194;49.010;8.414;2023-04-03T14:45:47;1.93;;;1.80;;
12263;SDS011;6194;49.010;8.414;2023-04-03T14:48:18;2.67;;;1.50;;
12263;SDS011;6194;49.010;8.414;2023-04-03T14:50:51;3.20;;;2.00;;
12263;SDS011;6194;49.010;8.414;2023-04-03T14:53:17;1.73;;;1.63;;
12263;SDS011;6194;49.010;8.414;2023-04-03T14:55:47;3.07;;;1.60;;
12263;SDS011;6194;49.010;8.414;2023-04-03T14:58:15;2.40;;;1.90;;
12263;SDS011;6194;49.010;8.414;2023-04-03T15:00:43;3.33;;;2.40;;
12263;SDS011;6194;49.010;8.414;2023-04-03T15:03:12;3.60;;;2.30;;
12263;SDS011;6194;49.010;8.414;2023-04-03T15:05:40;3.03;;;2.00;;
12263;SDS011;6194;49.010;8.414;2023-04-03T15:08:09;3.27;;;1.77;;
12263;SDS011;6194;49.010;8.414;2023-04-03T15:10:49;4.47;;;1.60;;
12263;SDS011;6194;49.010;8.414;2023-04-03T15:13:17;2.50;;;2.00;;
12263;SDS011;6194;49.010;8.414;2023-04-03T15:15:43;2.10;;;1.90;;
12263;SDS011;6194;49.010;8.414;2023-04-03T15:18:22;1.80;;;1.70;;
12263;SDS011;6194;49.010;8.414;2023-04-03T15:20:51;3.60;;;2.00;;
12263;SDS011;6194;49.010;8.414;2023-04-03T15:23:17;2.47;;;1.57;;
12263;SDS011;6194;49.010;8.414;2023-04-03T15:25:43;4.70;;;2.10;;
12263;SDS011;6194;49.010;8.414;2023-04-03T15:30:57;3.13;;;2.00;;
12263;SDS011;6194;49.010;8.414;2023-04-03T15:33:23;2.63;;;1.90;;
12263;SDS011;6194;49.010;8.414;2023-04-03T15:35:49;6.07;;;1.87;;
12263;SDS011;6194;49.010;8.414;2023-04-03T15:38:15;1.80;;;1.70;;
12263;SDS011;6194;49.010;8.414;2023-04-03T15:40:41;2.83;;;2.20;;
12263;SDS011;6194;49.010;8.414;2023-04-03T15:43:08;2.07;;;1.90;;
12263;SDS011;6194;49.010;8.414;2023-04-03T15:45:35;2.63;;;2.03;;
12263;SDS011;6194;49.010;8.414;2023-04-03T15:48:03;2.23;;;1.87;;
12263;SDS011;6194;49.010;8.414;2023-04-03T15:50:29;2.60;;;1.87;;
12263;SDS011;6194;49.010;8.414;2023-04-03T15:52:56;3.27;;;2.00;;
12263;SDS011;6194;49.010;8.414;2023-04-03T15:55:23;6.93;;;2.00;;
12263;SDS011;6194;49.010;8.414;2023-04-03T15:57:51;1.67;;;1.57;;
12263;SDS011;6194;49.010;8.414;2023-04-03T16:00:17;2.03;;;1.90;;
12263;SDS011;6194;49.010;8.414;2023-04-03T16:02:43;2.83;;;2.00;;
12263;SDS011;6194;49.010;8.414;2023-04-03T16:05:10;2.33;;;2.00;;
12263;SDS011;6194;49.010;8.414;2023-04-03T16:07:38;4.83;;;2.10;;
12263;SDS011;6194;49.010;8.414;2023-04-03T16:10:05;2.20;;;1.70;;
12263;SDS011;6194;49.010;8.414;2023-04-03T16:12:31;1.70;;;1.60;;
12263;SDS011;6194;49.010;8.414;2023-04-03T16:14:57;2.83;;;1.70;;
12263;SDS011;6194;49.010;8.414;2023-04-03T16:17:23;1.77;;;1.67;;
12263;SDS011;6194;49.010;8.414;2023-04-03T16:19:48;1.73;;;1.63;;
12263;SDS011;6194;49.010;8.414;2023-04-03T16:22:14;2.27;;;2.07;;
12263;SDS011;6194;49.010;8.414;2023-04-03T16:24:40;9.23;;;6.50;;
12263;SDS011;6194;49.010;8.414;2023-04-03T16:27:05;12.83;;;7.70;;
12263;SDS011;6194;49.010;8.414;2023-04-03T16:29:31;5.23;;;3.57;;
12263;SDS011;6194;49.010;8.414;2023-04-03T16:31:57;5.17;;;4.13;;
12263;SDS011;6194;49.010;8.414;2023-04-03T16:34:23;2.03;;;1.83;;
12263;SDS011;6194;49.010;8.414;2023-04-03T16:36:50;3.03;;;2.17;;
12263;SDS011;6194;49.010;8.414;2023-04-03T16:39:17;2.73;;;1.83;;
12263;SDS011;6194;49.010;8.414;2023-04-03T16:41:43;1.90;;;1.77;;
12263;SDS011;6194;49.010;8.414;2023-04-03T16:44:08;3.27;;;2.07;;
12263;SDS011;6194;49.010;8.414;2023-04-03T16:46:34;2.33;;;1.83;;
12263;SDS011;6194;49.010;8.414;2023-04-03T16:49:00;2.40;;;2.17;;
12263;SDS011;6194;49.010;8.414;2023-04-03T16:51:25;2.30;;;1.80;;
12263;SDS011;6194;49.010;8.414;2023-04-03T16:53:51;3.00;;;1.90;;
12263;SDS011;6194;49.010;8.414;2023-04-03T16:56:17;2.03;;;1.90;;
12263;SDS011;6194;49.010;8.414;2023-04-03T16:58:42;1.70;;;1.60;;